Informes METAR cercanos

 

LEBZ - Talavera Ab/Bada, Spain
Distancia desde la estación: ONO 43km
Actualización: 08/12/2021 12:30
Poco nuboso(1/8)
Poco nuboso(1/8)
 Viento del O
Viento: O 28 km/h
Temperatura: 13°C
Rocío: 7°C
Humedad: 67%
Barómetro: 1021 hPa
Nubes: Poco nuboso , 1/8
Visibilidad: 10 km
Detalle nubosidad: Poco nuboso , 1/8 1067 m
2021/12/08 11:30 LEBZ 081130Z 28015KT 9999 FEW035 13/07 Q1021